METAR Formatted Surface Weather Observation
Issued by NWS

Home | Current Version | Previous Version | Text Only | Print | Product List | Glossary On
Versions: 1 2 3 4 5 6 7 8 9 10 11 12 13
000
SAUS44 KMRX 280552
MTRGDP
METAR KGDP 280551Z AUTO 22009KT 10SM CLR 12/04 A3027 RMK AO2 SLPNO
T01220039 10167 20117 58003



USA.gov is the U.S. government's official web portal to all federal, state and local government web resources and services.